Ellensburg, WA

11:54 AM PDT on August 04, 2015 (GMT -0700)
Ellensburg WA | | Change Station
CLOSE
Current Station
Personal Weather Station
Location: Ellensburg, WA
Elevation: 1541 ft
Nearby Weather Stations
Active Advisory: Fire Weather Warning

Elev 1541 ft 47.00 °N, 120.55 °W | Updated 29 seconds ago

Clear
Clear
80.7 °F
Feels Like 79 °F
N
11.0
Wind Variable Wind from NW
Gusts 21.0 mph

Today
High -- | Low -- °F
--% Chance of Precip.
Yesterday
High -- | Low -- °F
Precip. -- in
5:45 AM 8:30 PM
Waning Gibbous, 75% visible
Pressure 29.85 in
Visibility 10.0 miles
Clouds Clear
Heat Index 79 °F
Dew Point 43 °F
Humidity 26%
Rainfall 0.00 in
Snow Depth Not available.
UV 8 out of 12
Pollen 5.60 out of 12
Air Quality Not available.
Flu Activity Not available.
METAR KELN 041753Z AUTO 31022G29KT 10SM CLR 28/07 A2990 RMK AO2 PK WND 31029/1753 SLP108 T02780067 10278 20183 58008

More Conditions Fewer Conditions

Pressure 29.85 in
Visibility 10.0 miles
Clouds Clear
Heat Index 79 °F
Dew Point 43 °F
Humidity 26%
Rainfall 0.00 in
Snow Depth Not available.
UV 8 out of 12
Pollen 5.60 out of 12
Air Quality Not available.
Flu Activity Not available.
METAR KELN 041753Z AUTO 31022G29KT 10SM CLR 28/07 A2990 RMK AO2 PK WND 31029/1753 SLP108 T02780067 10278 20183 58008

More Conditions Fewer Conditions

10-Day Weather Forecast

×

Almanac

Astronomy

Aug. 04, 2015 Rise Set
Actual Time
Civil Twilight
Nautical Twilight
Astronomical Twilight
Moon
Length of Visible Light
Length of Day
Tomorrow will be .
, % of the Moon is Illuminated

Today's Extremes

State Highs State Lows

Community

WunderPhotos

Upload Photos

1,843,937 photos uploaded!

WunderBlogs® & News

Nearby

Air Quality

  Air Quality AQ Index Pollutant
Not available.

Snow Depth

Station Depth Elevation

Earthquake Activity

City Distance Mag. Time & Date
Minimum magnitude displayed is 2.5.

Coastal Water Temperatures

Place Temperature

Stations

Nearby Weather Stations

Station Location Temp. Windchill Dew Point Humidity Wind Precip. Elev Updated Type
                   
Fire Weather Warning
Statement as of 5:56 AM PDT on August 04, 2015

... Red flag warning now in effect until 9 PM PDT this evening for
wind and low relative humidity for wind and low relative humidity
fwz 676 (central Cascade valleys)...

* affected area: fire weather zone 676 East Washington south
central Cascade valleys (zone 676).

* Winds: northwest 15 to 25 mph with gusts up to 35 mph.

* Relative humidities: 15 to 25 percent.

* Impacts: rapid fire spread is possible with any new or ongoing
fires.

Precautionary/preparedness actions...

A red flag warning means that critical fire weather conditions
are either occurring now... or will shortly. A combination of
strong winds... low relative humidity... and warm temperatures will
create extreme fire growth potential.